sensor_id;sensor_type;location;lat;lon;timestamp;temperature;humidity
75838;SHT30;64480;52.040;113.502;2023-03-14T00:02:55;-4.45;61.65
75838;SHT30;64480;52.040;113.502;2023-03-14T00:06:12;-4.33;62.04
75838;SHT30;64480;52.040;113.502;2023-03-14T00:09:20;-4.41;60.05
75838;SHT30;64480;52.040;113.502;2023-03-14T00:12:24;-4.39;59.67
75838;SHT30;64480;52.040;113.502;2023-03-14T00:15:35;-4.46;60.27
75838;SHT30;64480;52.040;113.502;2023-03-14T00:18:43;-4.39;60.59
75838;SHT30;64480;52.040;113.502;2023-03-14T00:21:51;-4.36;59.52
75838;SHT30;64480;52.040;113.502;2023-03-14T00:25:20;-4.35;60.60
75838;SHT30;64480;52.040;113.502;2023-03-14T00:28:28;-4.22;59.96
75838;SHT30;64480;52.040;113.502;2023-03-14T00:31:33;-4.12;58.67
75838;SHT30;64480;52.040;113.502;2023-03-14T00:35:04;-4.32;57.58
75838;SHT30;64480;52.040;113.502;2023-03-14T00:38:17;-4.24;58.62
75838;SHT30;64480;52.040;113.502;2023-03-14T00:41:49;-4.14;57.82
75838;SHT30;64480;52.040;113.502;2023-03-14T00:44:56;-4.04;57.61
75838;SHT30;64480;52.040;113.502;2023-03-14T00:51:42;-3.84;57.57
75838;SHT30;64480;52.040;113.502;2023-03-14T00:54:50;-3.70;57.53
75838;SHT30;64480;52.040;113.502;2023-03-14T00:57:56;-3.81;56.49
75838;SHT30;64480;52.040;113.502;2023-03-14T01:01:33;-3.81;57.44
75838;SHT30;64480;52.040;113.502;2023-03-14T01:04:38;-3.70;57.80
75838;SHT30;64480;52.040;113.502;2023-03-14T01:08:22;-3.67;57.78
75838;SHT30;64480;52.040;113.502;2023-03-14T01:11:34;-3.56;57.39
75838;SHT30;64480;52.040;113.502;2023-03-14T01:14:56;-3.39;56.53
75838;SHT30;64480;52.040;113.502;2023-03-14T01:18:06;-3.36;55.72
75838;SHT30;64480;52.040;113.502;2023-03-14T01:21:16;-3.48;55.52
75838;SHT30;64480;52.040;113.502;2023-03-14T01:24:20;-3.74;55.83
75838;SHT30;64480;52.040;113.502;2023-03-14T01:27:24;-3.70;56.83
75838;SHT30;64480;52.040;113.502;2023-03-14T01:30:32;-3.69;55.13
75838;SHT30;64480;52.040;113.502;2023-03-14T01:33:41;-3.71;57.23
75838;SHT30;64480;52.040;113.502;2023-03-14T01:36:50;-3.60;55.94
75838;SHT30;64480;52.040;113.502;2023-03-14T01:40:02;-3.42;55.28
75838;SHT30;64480;52.040;113.502;2023-03-14T01:43:25;-3.46;54.60
75838;SHT30;64480;52.040;113.502;2023-03-14T01:46:39;-3.32;55.57
75838;SHT30;64480;52.040;113.502;2023-03-14T01:49:55;-2.90;55.39
75838;SHT30;64480;52.040;113.502;2023-03-14T01:53:04;-3.00;53.44
75838;SHT30;64480;52.040;113.502;2023-03-14T01:56:20;-2.93;54.75
75838;SHT30;64480;52.040;113.502;2023-03-14T01:59:54;-2.76;54.34
75838;SHT30;64480;52.040;113.502;2023-03-14T02:03:02;-2.56;52.66
75838;SHT30;64480;52.040;113.502;2023-03-14T02:06:14;-2.59;52.15
75838;SHT30;64480;52.040;113.502;2023-03-14T02:31:06;-2.73;52.68
75838;SHT30;64480;52.040;113.502;2023-03-14T02:34:18;-2.80;52.47
75838;SHT30;64480;52.040;113.502;2023-03-14T02:37:54;-2.59;52.82
75838;SHT30;64480;52.040;113.502;2023-03-14T02:41:15;-2.53;52.78
75838;SHT30;64480;52.040;113.502;2023-03-14T02:44:35;-2.45;51.77
75838;SHT30;64480;52.040;113.502;2023-03-14T02:48:12;-2.30;51.93
75838;SHT30;64480;52.040;113.502;2023-03-14T02:51:45;-2.28;51.97
75838;SHT30;64480;52.040;113.502;2023-03-14T02:54:53;-2.03;51.66
75838;SHT30;64480;52.040;113.502;2023-03-14T02:58:00;-1.83;51.69
75838;SHT30;64480;52.040;113.502;2023-03-14T03:01:19;-1.97;51.91
75838;SHT30;64480;52.040;113.502;2023-03-14T03:04:52;-2.18;53.01
75838;SHT30;64480;52.040;113.502;2023-03-14T03:07:55;-1.93;50.79
75838;SHT30;64480;52.040;113.502;2023-03-14T03:11:07;-2.18;51.40
75838;SHT30;64480;52.040;113.502;2023-03-14T03:14:51;-2.30;51.71
75838;SHT30;64480;52.040;113.502;2023-03-14T03:18:08;-2.24;50.73
75838;SHT30;64480;52.040;113.502;2023-03-14T03:21:22;-2.24;49.64
75838;SHT30;64480;52.040;113.502;2023-03-14T03:24:37;-2.32;50.69
75838;SHT30;64480;52.040;113.502;2023-03-14T03:34:26;-2.34;51.15
75838;SHT30;64480;52.040;113.502;2023-03-14T03:38:00;-2.13;50.10
75838;SHT30;64480;52.040;113.502;2023-03-14T03:41:29;-2.10;50.16
75838;SHT30;64480;52.040;113.502;2023-03-14T03:44:38;-2.15;48.81
75838;SHT30;64480;52.040;113.502;2023-03-14T03:47:56;-1.93;49.08
75838;SHT30;64480;52.040;113.502;2023-03-14T03:51:06;-2.20;49.98
75838;SHT30;64480;52.040;113.502;2023-03-14T03:54:19;-2.21;50.06
75838;SHT30;64480;52.040;113.502;2023-03-14T03:57:23;-2.14;50.60
75838;SHT30;64480;52.040;113.502;2023-03-14T04:00:36;-2.04;50.27
75838;SHT30;64480;52.040;113.502;2023-03-14T04:03:46;-1.90;49.16
75838;SHT30;64480;52.040;113.502;2023-03-14T04:07:10;-1.90;49.69
75838;SHT30;64480;52.040;113.502;2023-03-14T04:10:28;-1.86;47.94
75838;SHT30;64480;52.040;113.502;2023-03-14T04:13:50;-2.01;49.87
75838;SHT30;64480;52.040;113.502;2023-03-14T04:17:07;-2.08;48.48
75838;SHT30;64480;52.040;113.502;2023-03-14T04:20:15;-2.20;51.14
75838;SHT30;64480;52.040;113.502;2023-03-14T04:23:47;-1.91;50.10
75838;SHT30;64480;52.040;113.502;2023-03-14T04:27:15;-1.72;51.89
75838;SHT30;64480;52.040;113.502;2023-03-14T04:31:30;-1.73;49.89
75838;SHT30;64480;52.040;113.502;2023-03-14T04:34:41;-1.91;51.67
75838;SHT30;64480;52.040;113.502;2023-03-14T04:38:13;-1.93;50.83
75838;SHT30;64480;52.040;113.502;2023-03-14T04:41:41;-1.94;49.45
75838;SHT30;64480;52.040;113.502;2023-03-14T04:44:52;-2.05;50.58
75838;SHT30;64480;52.040;113.502;2023-03-14T04:48:34;-2.15;49.67
75838;SHT30;64480;52.040;113.502;2023-03-14T04:51:39;-2.30;50.88
75838;SHT30;64480;52.040;113.502;2023-03-14T04:54:46;-2.35;51.70
75838;SHT30;64480;52.040;113.502;2023-03-14T04:57:56;-2.37;50.19
75838;SHT30;64480;52.040;113.502;2023-03-14T05:01:15;-2.10;48.32
75838;SHT30;64480;52.040;113.502;2023-03-14T05:05:07;-2.14;47.05
75838;SHT30;64480;52.040;113.502;2023-03-14T05:08:30;-2.24;47.43
75838;SHT30;64480;52.040;113.502;2023-03-14T05:12:11;-2.25;47.11
75838;SHT30;64480;52.040;113.502;2023-03-14T05:15:29;-2.32;48.04
75838;SHT30;64480;52.040;113.502;2023-03-14T05:19:17;-2.13;48.09
75838;SHT30;64480;52.040;113.502;2023-03-14T05:22:53;-2.05;47.23
75838;SHT30;64480;52.040;113.502;2023-03-14T05:26:27;-2.10;46.76
75838;SHT30;64480;52.040;113.502;2023-03-14T05:29:51;-2.17;47.02
75838;SHT30;64480;52.040;113.502;2023-03-14T05:33:24;-1.94;47.11
75838;SHT30;64480;52.040;113.502;2023-03-14T05:36:47;-1.85;47.99
75838;SHT30;64480;52.040;113.502;2023-03-14T05:44:06;-1.72;46.73
75838;SHT30;64480;52.040;113.502;2023-03-14T05:47:25;-1.63;46.61
75838;SHT30;64480;52.040;113.502;2023-03-14T05:51:07;-1.68;46.56
75838;SHT30;64480;52.040;113.502;2023-03-14T05:58:10;-1.76;46.99
75838;SHT30;64480;52.040;113.502;2023-03-14T06:02:05;-1.72;48.75
75838;SHT30;64480;52.040;113.502;2023-03-14T06:09:29;-1.52;45.49
75838;SHT30;64480;52.040;113.502;2023-03-14T06:12:51;-1.68;46.94
75838;SHT30;64480;52.040;113.502;2023-03-14T06:16:11;-1.85;47.61
75838;SHT30;64480;52.040;113.502;2023-03-14T06:19:17;-1.89;47.49
75838;SHT30;64480;52.040;113.502;2023-03-14T06:22:53;-1.70;46.68
75838;SHT30;64480;52.040;113.502;2023-03-14T06:29:43;-1.60;46.76
75838;SHT30;64480;52.040;113.502;2023-03-14T06:32:52;-1.87;47.92
75838;SHT30;64480;52.040;113.502;2023-03-14T06:36:01;-1.82;48.75
75838;SHT30;64480;52.040;113.502;2023-03-14T06:39:34;-1.59;48.81
75838;SHT30;64480;52.040;113.502;2023-03-14T06:42:48;-1.62;47.35
75838;SHT30;64480;52.040;113.502;2023-03-14T06:46:02;-1.38;47.02
75838;SHT30;64480;52.040;113.502;2023-03-14T06:49:16;-1.42;46.97
75838;SHT30;64480;52.040;113.502;2023-03-14T06:52:25;-1.37;47.36
75838;SHT30;64480;52.040;113.502;2023-03-14T06:55:40;-1.47;47.23
75838;SHT30;64480;52.040;113.502;2023-03-14T06:59:43;-1.45;46.95
75838;SHT30;64480;52.040;113.502;2023-03-14T07:07:06;-1.15;47.30
75838;SHT30;64480;52.040;113.502;2023-03-14T07:10:33;-1.07;45.89
75838;SHT30;64480;52.040;113.502;2023-03-14T07:13:46;-0.97;46.77
75838;SHT30;64480;52.040;113.502;2023-03-14T07:17:41;-1.07;48.45
75838;SHT30;64480;52.040;113.502;2023-03-14T07:21:06;-1.25;46.99
75838;SHT30;64480;52.040;113.502;2023-03-14T07:31:55;-1.56;45.17
75838;SHT30;64480;52.040;113.502;2023-03-14T07:35:24;-1.59;45.06
75838;SHT30;64480;52.040;113.502;2023-03-14T07:38:35;-1.55;44.93
75838;SHT30;64480;52.040;113.502;2023-03-14T07:42:24;-1.70;45.23
75838;SHT30;64480;52.040;113.502;2023-03-14T07:46:03;-1.60;44.38
75838;SHT30;64480;52.040;113.502;2023-03-14T07:49:15;-1.68;45.29
75838;SHT30;64480;52.040;113.502;2023-03-14T07:52:38;-1.83;44.90
75838;SHT30;64480;52.040;113.502;2023-03-14T07:56:11;-1.85;45.61
75838;SHT30;64480;52.040;113.502;2023-03-14T07:59:35;-1.87;44.77
75838;SHT30;64480;52.040;113.502;2023-03-14T08:03:15;-1.75;45.22
75838;SHT30;64480;52.040;113.502;2023-03-14T08:06:55;-1.69;44.30
75838;SHT30;64480;52.040;113.502;2023-03-14T08:10:09;-1.59;46.07
75838;SHT30;64480;52.040;113.502;2023-03-14T08:13:41;-1.69;45.01
75838;SHT30;64480;52.040;113.502;2023-03-14T08:17:06;-1.69;44.76
75838;SHT30;64480;52.040;113.502;2023-03-14T08:20:18;-1.79;44.51
75838;SHT30;64480;52.040;113.502;2023-03-14T08:23:30;-2.01;44.69
75838;SHT30;64480;52.040;113.502;2023-03-14T08:26:42;-2.07;46.00
75838;SHT30;64480;52.040;113.502;2023-03-14T08:29:51;-2.21;46.31
75838;SHT30;64480;52.040;113.502;2023-03-14T08:54:10;-2.60;47.06
75838;SHT30;64480;52.040;113.502;2023-03-14T08:57:32;-2.56;47.41
75838;SHT30;64480;52.040;113.502;2023-03-14T09:01:27;-2.49;46.08
75838;SHT30;64480;52.040;113.502;2023-03-14T09:04:33;-2.60;46.28
75838;SHT30;64480;52.040;113.502;2023-03-14T09:11:31;-2.65;47.63
75838;SHT30;64480;52.040;113.502;2023-03-14T09:14:41;-2.58;47.67
75838;SHT30;64480;52.040;113.502;2023-03-14T09:42:41;-3.08;52.29
75838;SHT30;64480;52.040;113.502;2023-03-14T09:47:00;-3.15;52.21
75838;SHT30;64480;52.040;113.502;2023-03-14T09:50:43;-3.15;51.95
75838;SHT30;64480;52.040;113.502;2023-03-14T09:58:04;-3.05;51.68
75838;SHT30;64480;52.040;113.502;2023-03-14T10:02:01;-3.07;52.27
75838;SHT30;64480;52.040;113.502;2023-03-14T10:08:54;-3.28;52.52
75838;SHT30;64480;52.040;113.502;2023-03-14T10:22:52;-3.41;52.27
75838;SHT30;64480;52.040;113.502;2023-03-14T10:26:24;-3.41;53.37
75838;SHT30;64480;52.040;113.502;2023-03-14T10:29:52;-3.45;54.27
75838;SHT30;64480;52.040;113.502;2023-03-14T10:33:39;-3.62;56.03
75838;SHT30;64480;52.040;113.502;2023-03-14T10:36:59;-3.64;56.56
75838;SHT30;64480;52.040;113.502;2023-03-14T10:40:19;-3.67;55.96
75838;SHT30;64480;52.040;113.502;2023-03-14T10:43:43;-3.69;56.13
75838;SHT30;64480;52.040;113.502;2023-03-14T10:47:25;-3.66;55.04
75838;SHT30;64480;52.040;113.502;2023-03-14T10:50:56;-3.66;55.31
75838;SHT30;64480;52.040;113.502;2023-03-14T10:54:22;-3.67;54.86
75838;SHT30;64480;52.040;113.502;2023-03-14T11:02:04;-3.84;56.74
75838;SHT30;64480;52.040;113.502;2023-03-14T11:09:36;-3.90;57.37
75838;SHT30;64480;52.040;113.502;2023-03-14T11:13:40;-3.87;57.58
75838;SHT30;64480;52.040;113.502;2023-03-14T11:36:11;-3.83;55.73
75838;SHT30;64480;52.040;113.502;2023-03-14T11:39:34;-3.83;55.73
75838;SHT30;64480;52.040;113.502;2023-03-14T11:43:09;-3.81;56.11
75838;SHT30;64480;52.040;113.502;2023-03-14T11:46:51;-3.86;54.83
75838;SHT30;64480;52.040;113.502;2023-03-14T11:50:28;-3.86;54.11
75838;SHT30;64480;52.040;113.502;2023-03-14T11:58:03;-3.83;53.81
75838;SHT30;64480;52.040;113.502;2023-03-14T12:15:39;-3.97;54.99
75838;SHT30;64480;52.040;113.502;2023-03-14T12:22:30;-3.98;55.31
75838;SHT30;64480;52.040;113.502;2023-03-14T12:26:07;-3.93;55.94
75838;SHT30;64480;52.040;113.502;2023-03-14T12:29:17;-3.94;55.36
75838;SHT30;64480;52.040;113.502;2023-03-14T12:32:24;-3.95;55.14
75838;SHT30;64480;52.040;113.502;2023-03-14T12:35:44;-3.91;55.65
75838;SHT30;64480;52.040;113.502;2023-03-14T12:39:12;-3.90;55.35
75838;SHT30;64480;52.040;113.502;2023-03-14T12:49:46;-4.12;55.40
75838;SHT30;64480;52.040;113.502;2023-03-14T12:56:58;-4.08;55.81
75838;SHT30;64480;52.040;113.502;2023-03-14T13:03:51;-4.07;56.60
75838;SHT30;64480;52.040;113.502;2023-03-14T13:06:59;-4.05;57.12
75838;SHT30;64480;52.040;113.502;2023-03-14T13:10:18;-4.02;56.51
75838;SHT30;64480;52.040;113.502;2023-03-14T13:13:25;-4.02;56.77
75838;SHT30;64480;52.040;113.502;2023-03-14T13:16:39;-4.07;56.10
75838;SHT30;64480;52.040;113.502;2023-03-14T13:20:00;-4.12;56.33
75838;SHT30;64480;52.040;113.502;2023-03-14T13:23:32;-4.21;56.74
75838;SHT30;64480;52.040;113.502;2023-03-14T13:26:49;-4.22;56.52
75838;SHT30;64480;52.040;113.502;2023-03-14T13:30:41;-4.25;56.83
75838;SHT30;64480;52.040;113.502;2023-03-14T13:34:02;-4.33;57.03
75838;SHT30;64480;52.040;113.502;2023-03-14T13:37:17;-4.33;56.96
75838;SHT30;64480;52.040;113.502;2023-03-14T13:40:34;-4.32;57.40
75838;SHT30;64480;52.040;113.502;2023-03-14T13:44:31;-4.33;57.13
75838;SHT30;64480;52.040;113.502;2023-03-14T13:47:40;-4.33;57.28
75838;SHT30;64480;52.040;113.502;2023-03-14T13:51:29;-4.39;57.59
75838;SHT30;64480;52.040;113.502;2023-03-14T13:54:59;-4.42;58.01
75838;SHT30;64480;52.040;113.502;2023-03-14T13:58:32;-4.42;58.06
75838;SHT30;64480;52.040;113.502;2023-03-14T14:10:16;-4.50;57.83
75838;SHT30;64480;52.040;113.502;2023-03-14T14:13:27;-4.53;57.24
75838;SHT30;64480;52.040;113.502;2023-03-14T14:16:45;-4.53;57.10
75838;SHT30;64480;52.040;113.502;2023-03-14T14:20:05;-4.53;57.35
75838;SHT30;64480;52.040;113.502;2023-03-14T14:23:19;-4.54;57.39
75838;SHT30;64480;52.040;113.502;2023-03-14T14:33:43;-4.67;56.53
75838;SHT30;64480;52.040;113.502;2023-03-14T14:36:51;-4.70;55.78
75838;SHT30;64480;52.040;113.502;2023-03-14T14:40:26;-4.73;56.18
75838;SHT30;64480;52.040;113.502;2023-03-14T14:43:40;-4.77;55.43
75838;SHT30;64480;52.040;113.502;2023-03-14T14:46:47;-4.87;55.54
75838;SHT30;64480;52.040;113.502;2023-03-14T14:53:38;-4.95;55.18
75838;SHT30;64480;52.040;113.502;2023-03-14T14:56:48;-4.99;55.41
75838;SHT30;64480;52.040;113.502;2023-03-14T14:59:55;-5.02;55.36
75838;SHT30;64480;52.040;113.502;2023-03-14T15:03:00;-5.04;55.83
75838;SHT30;64480;52.040;113.502;2023-03-14T15:06:09;-5.08;55.13
75838;SHT30;64480;52.040;113.502;2023-03-14T15:09:14;-5.18;55.52
75838;SHT30;64480;52.040;113.502;2023-03-14T15:19:54;-5.32;55.12
75838;SHT30;64480;52.040;113.502;2023-03-14T15:23:09;-5.36;54.91
75838;SHT30;64480;52.040;113.502;2023-03-14T15:30:03;-5.39;55.11
75838;SHT30;64480;52.040;113.502;2023-03-14T15:33:07;-5.43;55.04
75838;SHT30;64480;52.040;113.502;2023-03-14T15:36:38;-5.43;54.87
75838;SHT30;64480;52.040;113.502;2023-03-14T15:39:42;-5.44;54.47
75838;SHT30;64480;52.040;113.502;2023-03-14T15:42:46;-5.52;54.34
75838;SHT30;64480;52.040;113.502;2023-03-14T15:45:50;-5.57;54.17
75838;SHT30;64480;52.040;113.502;2023-03-14T15:49:01;-5.59;54.23
75838;SHT30;64480;52.040;113.502;2023-03-14T15:52:13;-5.62;53.68
75838;SHT30;64480;52.040;113.502;2023-03-14T15:55:41;-5.63;53.90
75838;SHT30;64480;52.040;113.502;2023-03-14T15:59:16;-5.66;53.51
75838;SHT30;64480;52.040;113.502;2023-03-14T16:02:22;-5.67;53.34
75838;SHT30;64480;52.040;113.502;2023-03-14T16:05:37;-5.70;53.74
75838;SHT30;64480;52.040;113.502;2023-03-14T16:08:41;-5.74;53.25
75838;SHT30;64480;52.040;113.502;2023-03-14T16:11:45;-5.74;53.50
75838;SHT30;64480;52.040;113.502;2023-03-14T16:14:49;-5.74;53.34
75838;SHT30;64480;52.040;113.502;2023-03-14T16:17:54;-5.75;52.93
75838;SHT30;64480;52.040;113.502;2023-03-14T16:21:00;-5.74;52.71
75838;SHT30;64480;52.040;113.502;2023-03-14T16:24:04;-5.77;52.64
75838;SHT30;64480;52.040;113.502;2023-03-14T16:27:35;-5.81;52.83
75838;SHT30;64480;52.040;113.502;2023-03-14T16:30:39;-5.85;53.05
75838;SHT30;64480;52.040;113.502;2023-03-14T16:33:45;-5.88;53.29
75838;SHT30;64480;52.040;113.502;2023-03-14T16:36:49;-5.90;53.37
75838;SHT30;64480;52.040;113.502;2023-03-14T16:39:55;-5.92;53.23
75838;SHT30;64480;52.040;113.502;2023-03-14T16:43:14;-5.99;53.24
75838;SHT30;64480;52.040;113.502;2023-03-14T17:03:52;-6.15;51.59
75838;SHT30;64480;52.040;113.502;2023-03-14T17:06:59;-6.16;51.06
75838;SHT30;64480;52.040;113.502;2023-03-14T17:10:03;-6.16;51.13
75838;SHT30;64480;52.040;113.502;2023-03-14T17:13:10;-6.19;50.80
75838;SHT30;64480;52.040;113.502;2023-03-14T17:16:14;-6.16;50.27
75838;SHT30;64480;52.040;113.502;2023-03-14T17:19:18;-6.19;49.61
75838;SHT30;64480;52.040;113.502;2023-03-14T17:33:19;-6.37;49.42
75838;SHT30;64480;52.040;113.502;2023-03-14T17:36:26;-6.40;49.04
75838;SHT30;64480;52.040;113.502;2023-03-14T17:39:45;-6.46;48.75
75838;SHT30;64480;52.040;113.502;2023-03-14T17:42:52;-6.50;49.11
75838;SHT30;64480;52.040;113.502;2023-03-14T18:00:11;-6.57;50.74
75838;SHT30;64480;52.040;113.502;2023-03-14T18:03:24;-6.63;51.11
75838;SHT30;64480;52.040;113.502;2023-03-14T18:06:31;-6.63;51.38
75838;SHT30;64480;52.040;113.502;2023-03-14T18:31:11;-6.77;53.28
75838;SHT30;64480;52.040;113.502;2023-03-14T18:37:57;-6.77;53.66
75838;SHT30;64480;52.040;113.502;2023-03-14T18:48:23;-6.92;53.50
75838;SHT30;64480;52.040;113.502;2023-03-14T18:58:47;-6.99;54.47
75838;SHT30;64480;52.040;113.502;2023-03-14T19:01:51;-7.03;54.87
75838;SHT30;64480;52.040;113.502;2023-03-14T19:04:58;-7.01;54.64
75838;SHT30;64480;52.040;113.502;2023-03-14T19:08:02;-7.03;54.45
75838;SHT30;64480;52.040;113.502;2023-03-14T19:11:11;-7.02;54.53
75838;SHT30;64480;52.040;113.502;2023-03-14T19:14:15;-7.02;54.51
75838;SHT30;64480;52.040;113.502;2023-03-14T19:17:22;-6.98;54.44
75838;SHT30;64480;52.040;113.502;2023-03-14T19:20:26;-6.99;54.11
75838;SHT30;64480;52.040;113.502;2023-03-14T19:23:55;-7.01;54.30
75838;SHT30;64480;52.040;113.502;2023-03-14T19:27:02;-6.98;54.35
75838;SHT30;64480;52.040;113.502;2023-03-14T19:34:03;-6.92;54.01
75838;SHT30;64480;52.040;113.502;2023-03-14T19:37:07;-7.01;53.96
75838;SHT30;64480;52.040;113.502;2023-03-14T19:40:12;-6.99;54.25
75838;SHT30;64480;52.040;113.502;2023-03-14T19:43:16;-6.98;54.03
75838;SHT30;64480;52.040;113.502;2023-03-14T19:46:21;-6.98;54.04
75838;SHT30;64480;52.040;113.502;2023-03-14T19:49:27;-7.05;53.83
75838;SHT30;64480;52.040;113.502;2023-03-14T19:52:35;-7.01;53.85
75838;SHT30;64480;52.040;113.502;2023-03-14T19:55:42;-6.98;53.85
75838;SHT30;64480;52.040;113.502;2023-03-14T19:58:48;-6.95;53.76
75838;SHT30;64480;52.040;113.502;2023-03-14T20:01:59;-6.96;53.48
75838;SHT30;64480;52.040;113.502;2023-03-14T20:05:40;-7.05;53.14
75838;SHT30;64480;52.040;113.502;2023-03-14T20:08:50;-7.06;53.29
75838;SHT30;64480;52.040;113.502;2023-03-14T20:12:01;-7.08;53.22
75838;SHT30;64480;52.040;113.502;2023-03-14T20:15:30;-7.06;53.25
75838;SHT30;64480;52.040;113.502;2023-03-14T20:18:37;-7.06;53.19
75838;SHT30;64480;52.040;113.502;2023-03-14T20:22:12;-7.13;53.01
75838;SHT30;64480;52.040;113.502;2023-03-14T20:25:17;-7.26;53.19
75838;SHT30;64480;52.040;113.502;2023-03-14T20:28:45;-7.20;53.17
75838;SHT30;64480;52.040;113.502;2023-03-14T20:31:50;-7.22;53.16
75838;SHT30;64480;52.040;113.502;2023-03-14T20:35:19;-7.27;53.42
75838;SHT30;64480;52.040;113.502;2023-03-14T20:38:46;-7.31;53.41
75838;SHT30;64480;52.040;113.502;2023-03-14T20:42:16;-7.40;53.26
75838;SHT30;64480;52.040;113.502;2023-03-14T20:45:22;-7.43;53.92
75838;SHT30;64480;52.040;113.502;2023-03-14T20:48:52;-7.46;54.01
75838;SHT30;64480;52.040;113.502;2023-03-14T20:51:59;-7.39;54.49
75838;SHT30;64480;52.040;113.502;2023-03-14T20:59:01;-7.55;54.27
75838;SHT30;64480;52.040;113.502;2023-03-14T21:02:29;-7.57;54.26
75838;SHT30;64480;52.040;113.502;2023-03-14T21:06:01;-7.61;54.86
75838;SHT30;64480;52.040;113.502;2023-03-14T21:09:23;-7.62;54.79
75838;SHT30;64480;52.040;113.502;2023-03-14T21:12:30;-7.71;54.64
75838;SHT30;64480;52.040;113.502;2023-03-14T21:19:00;-7.82;54.76
75838;SHT30;64480;52.040;113.502;2023-03-14T21:22:29;-7.82;55.14
75838;SHT30;64480;52.040;113.502;2023-03-14T21:25:34;-7.88;55.09
75838;SHT30;64480;52.040;113.502;2023-03-14T21:28:42;-7.81;55.61
75838;SHT30;64480;52.040;113.502;2023-03-14T21:31:47;-7.73;55.31
75838;SHT30;64480;52.040;113.502;2023-03-14T21:35:06;-7.57;54.91
75838;SHT30;64480;52.040;113.502;2023-03-14T21:38:10;-7.47;54.05
75838;SHT30;64480;52.040;113.502;2023-03-14T21:41:39;-7.39;53.85
75838;SHT30;64480;52.040;113.502;2023-03-14T21:44:46;-7.31;53.79
75838;SHT30;64480;52.040;113.502;2023-03-14T21:51:34;-7.30;52.83
75838;SHT30;64480;52.040;113.502;2023-03-14T21:58:51;-7.57;53.38
75838;SHT30;64480;52.040;113.502;2023-03-14T22:02:27;-7.67;54.49
75838;SHT30;64480;52.040;113.502;2023-03-14T22:05:37;-7.86;56.02
75838;SHT30;64480;52.040;113.502;2023-03-14T22:09:07;-7.86;56.37
75838;SHT30;64480;52.040;113.502;2023-03-14T22:12:12;-7.89;56.29
75838;SHT30;64480;52.040;113.502;2023-03-14T22:22:21;-7.86;56.08
75838;SHT30;64480;52.040;113.502;2023-03-14T22:25:28;-7.94;54.77
75838;SHT30;64480;52.040;113.502;2023-03-14T22:28:45;-7.96;55.11
75838;SHT30;64480;52.040;113.502;2023-03-14T22:31:50;-7.94;55.18
75838;SHT30;64480;52.040;113.502;2023-03-14T22:35:18;-7.92;54.20
75838;SHT30;64480;52.040;113.502;2023-03-14T22:38:26;-8.01;53.71
75838;SHT30;64480;52.040;113.502;2023-03-14T22:46:40;-8.14;54.44
75838;SHT30;64480;52.040;113.502;2023-03-14T22:50:20;-8.07;54.14
75838;SHT30;64480;52.040;113.502;2023-03-14T22:53:37;-8.07;54.34
75838;SHT30;64480;52.040;113.502;2023-03-14T22:56:47;-8.12;53.30
75838;SHT30;64480;52.040;113.502;2023-03-14T23:00:21;-8.12;53.35
75838;SHT30;64480;52.040;113.502;2023-03-14T23:03:51;-8.06;53.41
75838;SHT30;64480;52.040;113.502;2023-03-14T23:07:42;-8.01;53.21
75838;SHT30;64480;52.040;113.502;2023-03-14T23:11:02;-7.85;52.49
75838;SHT30;64480;52.040;113.502;2023-03-14T23:14:14;-7.71;52.18
75838;SHT30;64480;52.040;113.502;2023-03-14T23:17:25;-7.64;51.29
75838;SHT30;64480;52.040;113.502;2023-03-14T23:20:35;-7.71;50.18
75838;SHT30;64480;52.040;113.502;2023-03-14T23:24:05;-7.65;50.66
75838;SHT30;64480;52.040;113.502;2023-03-14T23:34:45;-6.95;49.82
75838;SHT30;64480;52.040;113.502;2023-03-14T23:39:11;-5.80;45.89
75838;SHT30;64480;52.040;113.502;2023-03-14T23:42:49;-5.05;44.02
75838;SHT30;64480;52.040;113.502;2023-03-14T23:51:11;-3.70;38.93
